sensor_id;sensor_type;location;lat;lon;timestamp;pressure;altitude;pressure_sealevel;temperature;humidity
9905;BME280;4991;43.566;27.820;2023-02-16T00:01:44;100218.31;;;-0.51;100.00
9905;BME280;4991;43.566;27.820;2023-02-16T00:04:21;100213.81;;;-0.50;100.00
9905;BME280;4991;43.566;27.820;2023-02-16T00:06:49;100217.88;;;-0.54;100.00
9905;BME280;4991;43.566;27.820;2023-02-16T00:09:15;100214.38;;;-0.55;100.00
9905;BME280;4991;43.566;27.820;2023-02-16T00:11:41;100208.22;;;-0.55;100.00
9905;BME280;4991;43.566;27.820;2023-02-16T00:14:26;100206.34;;;-0.55;100.00
9905;BME280;4991;43.566;27.820;2023-02-16T00:16:53;100210.06;;;-0.56;100.00
9905;BME280;4991;43.566;27.820;2023-02-16T00:21:46;100203.41;;;-0.66;100.00
9905;BME280;4991;43.566;27.820;2023-02-16T00:24:12;100197.22;;;-0.73;100.00
9905;BME280;4991;43.566;27.820;2023-02-16T00:26:39;100199.63;;;-0.85;100.00
9905;BME280;4991;43.566;27.820;2023-02-16T00:29:05;100193.06;;;-0.76;100.00
9905;BME280;4991;43.566;27.820;2023-02-16T00:31:31;100191.34;;;-0.90;100.00
9905;BME280;4991;43.566;27.820;2023-02-16T00:33:58;100194.63;;;-0.88;100.00
9905;BME280;4991;43.566;27.820;2023-02-16T00:36:24;100190.75;;;-0.85;100.00
9905;BME280;4991;43.566;27.820;2023-02-16T00:38:50;100193.72;;;-0.74;100.00
9905;BME280;4991;43.566;27.820;2023-02-16T00:41:21;100198.47;;;-0.69;100.00
9905;BME280;4991;43.566;27.820;2023-02-16T00:44:13;100183.25;;;-0.69;100.00
9905;BME280;4991;43.566;27.820;2023-02-16T00:46:40;100191.59;;;-0.85;100.00
9905;BME280;4991;43.566;27.820;2023-02-16T00:49:12;100189.75;;;-0.78;100.00
9905;BME280;4991;43.566;27.820;2023-02-16T00:51:39;100188.16;;;-0.72;100.00
9905;BME280;4991;43.566;27.820;2023-02-16T00:54:04;100181.84;;;-0.65;100.00
9905;BME280;4991;43.566;27.820;2023-02-16T00:56:30;100177.91;;;-0.69;100.00
9905;BME280;4991;43.566;27.820;2023-02-16T00:58:58;100186.34;;;-0.65;100.00
9905;BME280;4991;43.566;27.820;2023-02-16T01:01:28;100187.63;;;-0.55;100.00
9905;BME280;4991;43.566;27.820;2023-02-16T01:03:55;100180.69;;;-0.43;100.00
9905;BME280;4991;43.566;27.820;2023-02-16T01:06:21;100171.88;;;-0.37;100.00
9905;BME280;4991;43.566;27.820;2023-02-16T01:09:14;100173.28;;;-0.41;100.00
9905;BME280;4991;43.566;27.820;2023-02-16T01:11:59;100173.28;;;-0.47;100.00
9905;BME280;4991;43.566;27.820;2023-02-16T01:14:25;100177.75;;;-0.54;100.00
9905;BME280;4991;43.566;27.820;2023-02-16T01:16:50;100165.00;;;-0.52;100.00
9905;BME280;4991;43.566;27.820;2023-02-16T01:19:16;100168.97;;;-0.48;100.00
9905;BME280;4991;43.566;27.820;2023-02-16T01:21:42;100164.97;;;-0.59;100.00
9905;BME280;4991;43.566;27.820;2023-02-16T01:24:07;100172.38;;;-0.61;100.00
9905;BME280;4991;43.566;27.820;2023-02-16T01:26:39;100166.31;;;-0.76;100.00
9905;BME280;4991;43.566;27.820;2023-02-16T01:29:06;100170.16;;;-0.91;100.00
9905;BME280;4991;43.566;27.820;2023-02-16T01:31:37;100166.81;;;-1.00;100.00
9905;BME280;4991;43.566;27.820;2023-02-16T01:34:02;100162.19;;;-1.12;100.00
9905;BME280;4991;43.566;27.820;2023-02-16T01:36:33;100174.72;;;-1.19;100.00
9905;BME280;4991;43.566;27.820;2023-02-16T01:38:59;100172.28;;;-1.14;100.00
9905;BME280;4991;43.566;27.820;2023-02-16T01:44:15;100168.53;;;-1.20;100.00
9905;BME280;4991;43.566;27.820;2023-02-16T01:46:55;100169.47;;;-1.27;100.00
9905;BME280;4991;43.566;27.820;2023-02-16T01:49:23;100171.75;;;-1.31;100.00
9905;BME280;4991;43.566;27.820;2023-02-16T01:52:04;100180.19;;;-1.27;100.00
9905;BME280;4991;43.566;27.820;2023-02-16T01:57:10;100170.50;;;-1.56;100.00
9905;BME280;4991;43.566;27.820;2023-02-16T02:02:22;100165.34;;;-1.79;100.00
9905;BME280;4991;43.566;27.820;2023-02-16T02:04:52;100162.69;;;-1.79;100.00
9905;BME280;4991;43.566;27.820;2023-02-16T02:07:48;100164.72;;;-1.81;100.00
9905;BME280;4991;43.566;27.820;2023-02-16T02:10:40;100170.06;;;-1.81;100.00
9905;BME280;4991;43.566;27.820;2023-02-16T02:13:54;100166.06;;;-1.70;100.00
9905;BME280;4991;43.566;27.820;2023-02-16T02:16:00;100167.59;;;-1.61;100.00
9905;BME280;4991;43.566;27.820;2023-02-16T02:18:26;100161.75;;;-1.44;100.00
9905;BME280;4991;43.566;27.820;2023-02-16T02:43:12;100162.97;;;-1.18;100.00
9905;BME280;4991;43.566;27.820;2023-02-16T02:45:44;100157.44;;;-1.17;100.00
9905;BME280;4991;43.566;27.820;2023-02-16T02:48:10;100162.00;;;-1.11;100.00
9905;BME280;4991;43.566;27.820;2023-02-16T02:50:56;100158.56;;;-1.05;100.00
9905;BME280;4991;43.566;27.820;2023-02-16T02:53:48;100160.44;;;-0.99;100.00
9905;BME280;4991;43.566;27.820;2023-02-16T02:56:35;100165.78;;;-0.99;100.00
9905;BME280;4991;43.566;27.820;2023-02-16T02:59:20;100166.13;;;-1.08;100.00
9905;BME280;4991;43.566;27.820;2023-02-16T03:02:05;100157.91;;;-1.07;100.00
9905;BME280;4991;43.566;27.820;2023-02-16T03:04:31;100163.28;;;-1.07;100.00
9905;BME280;4991;43.566;27.820;2023-02-16T03:06:58;100161.66;;;-1.01;100.00
9905;BME280;4991;43.566;27.820;2023-02-16T03:09:25;100165.34;;;-1.02;100.00
9905;BME280;4991;43.566;27.820;2023-02-16T03:11:52;100163.72;;;-1.03;100.00
9905;BME280;4991;43.566;27.820;2023-02-16T03:14:45;100153.25;;;-0.98;100.00
9905;BME280;4991;43.566;27.820;2023-02-16T03:17:15;100163.28;;;-1.07;100.00
9905;BME280;4991;43.566;27.820;2023-02-16T03:20:03;100155.25;;;-1.07;100.00
9905;BME280;4991;43.566;27.820;2023-02-16T03:22:49;100162.53;;;-1.22;100.00
9905;BME280;4991;43.566;27.820;2023-02-16T03:25:35;100153.69;;;-1.22;100.00
9905;BME280;4991;43.566;27.820;2023-02-16T03:28:23;100157.16;;;-1.28;100.00
9905;BME280;4991;43.566;27.820;2023-02-16T03:31:11;100171.31;;;-1.35;100.00
9905;BME280;4991;43.566;27.820;2023-02-16T03:33:38;100166.22;;;-1.51;100.00
9905;BME280;4991;43.566;27.820;2023-02-16T03:36:05;100168.59;;;-1.62;100.00
9905;BME280;4991;43.566;27.820;2023-02-16T03:38:31;100177.19;;;-1.67;100.00
9905;BME280;4991;43.566;27.820;2023-02-16T03:40:57;100176.03;;;-1.58;100.00
9905;BME280;4991;43.566;27.820;2023-02-16T03:43:24;100179.28;;;-1.62;100.00
9905;BME280;4991;43.566;27.820;2023-02-16T03:45:51;100178.41;;;-1.69;100.00
9905;BME280;4991;43.566;27.820;2023-02-16T03:48:16;100182.41;;;-1.80;100.00
9905;BME280;4991;43.566;27.820;2023-02-16T03:50:42;100179.66;;;-1.86;100.00
9905;BME280;4991;43.566;27.820;2023-02-16T03:53:08;100181.75;;;-1.82;100.00
9905;BME280;4991;43.566;27.820;2023-02-16T03:57:59;100178.22;;;-1.68;100.00
9905;BME280;4991;43.566;27.820;2023-02-16T04:00:26;100185.44;;;-1.62;100.00
9905;BME280;4991;43.566;27.820;2023-02-16T04:02:52;100189.66;;;-1.53;100.00
9905;BME280;4991;43.566;27.820;2023-02-16T04:05:17;100190.66;;;-1.54;100.00
9905;BME280;4991;43.566;27.820;2023-02-16T04:07:43;100184.47;;;-1.54;100.00
9905;BME280;4991;43.566;27.820;2023-02-16T04:10:09;100180.59;;;-1.52;100.00
9905;BME280;4991;43.566;27.820;2023-02-16T04:12:34;100182.97;;;-1.63;100.00
9905;BME280;4991;43.566;27.820;2023-02-16T04:15:06;100170.63;;;-1.64;100.00
9905;BME280;4991;43.566;27.820;2023-02-16T04:17:32;100176.09;;;-1.51;100.00
9905;BME280;4991;43.566;27.820;2023-02-16T04:19:58;100176.16;;;-1.45;100.00
9905;BME280;4991;43.566;27.820;2023-02-16T04:22:23;100172.41;;;-1.50;100.00
9905;BME280;4991;43.566;27.820;2023-02-16T04:24:49;100175.00;;;-1.57;100.00
9905;BME280;4991;43.566;27.820;2023-02-16T04:27:15;100180.94;;;-1.61;100.00
9905;BME280;4991;43.566;27.820;2023-02-16T04:29:40;100175.16;;;-1.65;100.00
9905;BME280;4991;43.566;27.820;2023-02-16T04:32:06;100181.56;;;-1.59;100.00
9905;BME280;4991;43.566;27.820;2023-02-16T04:34:31;100185.94;;;-1.52;100.00
9905;BME280;4991;43.566;27.820;2023-02-16T04:36:57;100181.00;;;-1.55;100.00
9905;BME280;4991;43.566;27.820;2023-02-16T04:39:23;100188.19;;;-1.55;100.00
9905;BME280;4991;43.566;27.820;2023-02-16T04:41:48;100182.88;;;-1.49;100.00
9905;BME280;4991;43.566;27.820;2023-02-16T04:44:14;100187.91;;;-1.60;100.00
9905;BME280;4991;43.566;27.820;2023-02-16T04:46:40;100194.75;;;-1.58;100.00
9905;BME280;4991;43.566;27.820;2023-02-16T04:49:05;100189.72;;;-1.46;100.00
9905;BME280;4991;43.566;27.820;2023-02-16T04:51:31;100195.59;;;-1.51;100.00
9905;BME280;4991;43.566;27.820;2023-02-16T04:53:56;100191.94;;;-1.50;100.00
9905;BME280;4991;43.566;27.820;2023-02-16T04:56:22;100188.38;;;-1.57;100.00
9905;BME280;4991;43.566;27.820;2023-02-16T04:58:49;100200.56;;;-1.69;100.00
9905;BME280;4991;43.566;27.820;2023-02-16T05:01:23;100192.50;;;-1.75;100.00
9905;BME280;4991;43.566;27.820;2023-02-16T05:03:49;100202.72;;;-1.79;100.00
9905;BME280;4991;43.566;27.820;2023-02-16T05:06:15;100198.56;;;-1.88;100.00
9905;BME280;4991;43.566;27.820;2023-02-16T05:08:40;100200.19;;;-1.87;100.00
9905;BME280;4991;43.566;27.820;2023-02-16T05:11:06;100199.69;;;-1.76;100.00
9905;BME280;4991;43.566;27.820;2023-02-16T05:13:50;100205.41;;;-1.79;100.00
9905;BME280;4991;43.566;27.820;2023-02-16T05:16:34;100205.84;;;-1.96;100.00
9905;BME280;4991;43.566;27.820;2023-02-16T05:19:00;100205.13;;;-2.05;100.00
9905;BME280;4991;43.566;27.820;2023-02-16T05:21:26;100210.41;;;-2.11;100.00
9905;BME280;4991;43.566;27.820;2023-02-16T05:24:01;100207.16;;;-2.07;100.00
9905;BME280;4991;43.566;27.820;2023-02-16T05:26:28;100210.81;;;-1.93;100.00
9905;BME280;4991;43.566;27.820;2023-02-16T05:28:54;100207.75;;;-1.90;100.00
9905;BME280;4991;43.566;27.820;2023-02-16T05:31:21;100212.34;;;-1.84;100.00
9905;BME280;4991;43.566;27.820;2023-02-16T05:33:47;100208.72;;;-1.77;100.00
9905;BME280;4991;43.566;27.820;2023-02-16T05:36:13;100216.78;;;-1.70;100.00
9905;BME280;4991;43.566;27.820;2023-02-16T05:38:38;100211.56;;;-1.57;100.00
9905;BME280;4991;43.566;27.820;2023-02-16T05:41:04;100215.59;;;-1.47;100.00
9905;BME280;4991;43.566;27.820;2023-02-16T05:43:30;100209.06;;;-1.38;100.00
9905;BME280;4991;43.566;27.820;2023-02-16T05:45:55;100207.53;;;-1.25;100.00
9905;BME280;4991;43.566;27.820;2023-02-16T05:48:21;100208.81;;;-1.21;100.00
9905;BME280;4991;43.566;27.820;2023-02-16T05:50:46;100212.59;;;-1.09;100.00
9905;BME280;4991;43.566;27.820;2023-02-16T05:53:12;100206.47;;;-1.03;100.00
9905;BME280;4991;43.566;27.820;2023-02-16T05:55:38;100211.47;;;-0.94;100.00
9905;BME280;4991;43.566;27.820;2023-02-16T05:58:03;100216.88;;;-0.87;100.00
9905;BME280;4991;43.566;27.820;2023-02-16T06:00:29;100211.16;;;-0.78;100.00
9905;BME280;4991;43.566;27.820;2023-02-16T06:02:58;100219.00;;;-0.76;100.00
9905;BME280;4991;43.566;27.820;2023-02-16T06:05:25;100209.16;;;-0.69;100.00
9905;BME280;4991;43.566;27.820;2023-02-16T06:07:51;100214.78;;;-0.58;100.00
9905;BME280;4991;43.566;27.820;2023-02-16T06:10:17;100220.16;;;-0.51;100.00
9905;BME280;4991;43.566;27.820;2023-02-16T06:12:43;100219.34;;;-0.52;100.00
9905;BME280;4991;43.566;27.820;2023-02-16T06:15:10;100222.50;;;-0.42;100.00
9905;BME280;4991;43.566;27.820;2023-02-16T06:17:35;100219.28;;;-0.24;100.00
9905;BME280;4991;43.566;27.820;2023-02-16T06:20:01;100217.47;;;-0.11;100.00
9905;BME280;4991;43.566;27.820;2023-02-16T06:22:27;100213.59;;;0.05;100.00
9905;BME280;4991;43.566;27.820;2023-02-16T06:24:53;100213.25;;;0.15;100.00
9905;BME280;4991;43.566;27.820;2023-02-16T06:27:18;100211.19;;;0.23;100.00
9905;BME280;4991;43.566;27.820;2023-02-16T06:29:44;100214.91;;;0.42;100.00
9905;BME280;4991;43.566;27.820;2023-02-16T06:32:09;100209.59;;;0.55;100.00
9905;BME280;4991;43.566;27.820;2023-02-16T06:34:35;100213.31;;;0.73;100.00
9905;BME280;4991;43.566;27.820;2023-02-16T06:37:01;100213.91;;;0.88;100.00
9905;BME280;4991;43.566;27.820;2023-02-16T06:39:26;100217.00;;;0.98;100.00
9905;BME280;4991;43.566;27.820;2023-02-16T06:41:52;100211.03;;;1.16;100.00
9905;BME280;4991;43.566;27.820;2023-02-16T06:44:18;100219.03;;;1.36;100.00
9905;BME280;4991;43.566;27.820;2023-02-16T06:46:44;100212.78;;;1.55;100.00
9905;BME280;4991;43.566;27.820;2023-02-16T06:49:13;100213.97;;;1.72;100.00
9905;BME280;4991;43.566;27.820;2023-02-16T06:51:39;100220.53;;;1.89;100.00
9905;BME280;4991;43.566;27.820;2023-02-16T06:54:05;100211.78;;;2.00;100.00
9905;BME280;4991;43.566;27.820;2023-02-16T06:56:30;100206.56;;;2.11;100.00
9905;BME280;4991;43.566;27.820;2023-02-16T06:58:56;100206.69;;;2.23;100.00
9905;BME280;4991;43.566;27.820;2023-02-16T07:01:21;100206.78;;;2.41;100.00
9905;BME280;4991;43.566;27.820;2023-02-16T07:03:50;100208.47;;;2.67;100.00
9905;BME280;4991;43.566;27.820;2023-02-16T07:06:17;100210.56;;;2.89;100.00
9905;BME280;4991;43.566;27.820;2023-02-16T07:08:43;100203.38;;;3.08;100.00
9905;BME280;4991;43.566;27.820;2023-02-16T07:11:09;100199.88;;;3.25;100.00
9905;BME280;4991;43.566;27.820;2023-02-16T07:13:35;100202.28;;;3.33;100.00
9905;BME280;4991;43.566;27.820;2023-02-16T07:16:05;100201.25;;;3.34;100.00
9905;BME280;4991;43.566;27.820;2023-02-16T07:18:31;100201.53;;;3.26;100.00
9905;BME280;4991;43.566;27.820;2023-02-16T07:20:57;100199.31;;;3.41;100.00
9905;BME280;4991;43.566;27.820;2023-02-16T07:23:23;100190.75;;;3.08;100.00
9905;BME280;4991;43.566;27.820;2023-02-16T07:25:49;100186.31;;;3.14;100.00
9905;BME280;4991;43.566;27.820;2023-02-16T07:28:14;100190.03;;;3.37;100.00
9905;BME280;4991;43.566;27.820;2023-02-16T07:30:40;100191.16;;;3.48;100.00
9905;BME280;4991;43.566;27.820;2023-02-16T07:33:06;100189.19;;;3.37;100.00
9905;BME280;4991;43.566;27.820;2023-02-16T07:35:35;100194.06;;;3.28;100.00
9905;BME280;4991;43.566;27.820;2023-02-16T07:38:01;100193.41;;;3.33;100.00
9905;BME280;4991;43.566;27.820;2023-02-16T07:40:27;100192.41;;;3.27;100.00
9905;BME280;4991;43.566;27.820;2023-02-16T07:42:53;100188.63;;;3.35;100.00
9905;BME280;4991;43.566;27.820;2023-02-16T07:45:19;100185.78;;;3.48;100.00
9905;BME280;4991;43.566;27.820;2023-02-16T07:47:45;100187.72;;;3.59;100.00
9905;BME280;4991;43.566;27.820;2023-02-16T07:50:10;100184.50;;;3.50;100.00
9905;BME280;4991;43.566;27.820;2023-02-16T07:52:36;100183.22;;;3.35;100.00
9905;BME280;4991;43.566;27.820;2023-02-16T07:55:02;100183.72;;;3.25;100.00
9905;BME280;4991;43.566;27.820;2023-02-16T07:57:28;100180.16;;;3.31;100.00
9905;BME280;4991;43.566;27.820;2023-02-16T07:59:54;100184.13;;;3.47;100.00
9905;BME280;4991;43.566;27.820;2023-02-16T08:02:21;100185.72;;;3.54;100.00
9905;BME280;4991;43.566;27.820;2023-02-16T08:04:47;100176.94;;;3.59;100.00
9905;BME280;4991;43.566;27.820;2023-02-16T08:07:15;100181.94;;;3.55;100.00
9905;BME280;4991;43.566;27.820;2023-02-16T08:09:41;100177.25;;;3.69;100.00
9905;BME280;4991;43.566;27.820;2023-02-16T08:12:09;100178.75;;;3.83;100.00
9905;BME280;4991;43.566;27.820;2023-02-16T08:14:35;100184.75;;;3.96;100.00
9905;BME280;4991;43.566;27.820;2023-02-16T08:17:04;100185.59;;;3.97;100.00
9905;BME280;4991;43.566;27.820;2023-02-16T08:19:29;100175.69;;;4.09;100.00
9905;BME280;4991;43.566;27.820;2023-02-16T08:21:56;100175.38;;;4.17;100.00
9905;BME280;4991;43.566;27.820;2023-02-16T08:24:22;100173.03;;;4.21;100.00
9905;BME280;4991;43.566;27.820;2023-02-16T08:26:51;100183.00;;;4.20;100.00
9905;BME280;4991;43.566;27.820;2023-02-16T08:29:19;100188.09;;;4.40;100.00
9905;BME280;4991;43.566;27.820;2023-02-16T08:31:45;100182.50;;;4.53;100.00
9905;BME280;4991;43.566;27.820;2023-02-16T08:34:14;100180.97;;;4.45;100.00
9905;BME280;4991;43.566;27.820;2023-02-16T08:36:41;100181.00;;;4.57;100.00
9905;BME280;4991;43.566;27.820;2023-02-16T08:39:19;100187.91;;;4.64;100.00
9905;BME280;4991;43.566;27.820;2023-02-16T08:41:46;100186.53;;;4.62;100.00
9905;BME280;4991;43.566;27.820;2023-02-16T08:44:13;100182.22;;;4.72;100.00
9905;BME280;4991;43.566;27.820;2023-02-16T08:46:41;100182.91;;;4.79;100.00
9905;BME280;4991;43.566;27.820;2023-02-16T08:49:08;100177.19;;;4.76;100.00
9905;BME280;4991;43.566;27.820;2023-02-16T08:51:36;100189.63;;;4.88;100.00
9905;BME280;4991;43.566;27.820;2023-02-16T08:54:04;100180.22;;;4.91;100.00
9905;BME280;4991;43.566;27.820;2023-02-16T08:56:33;100178.59;;;5.01;100.00
9905;BME280;4991;43.566;27.820;2023-02-16T08:58:59;100192.81;;;5.08;100.00
9905;BME280;4991;43.566;27.820;2023-02-16T09:01:25;100184.59;;;5.15;100.00
9905;BME280;4991;43.566;27.820;2023-02-16T09:03:51;100174.25;;;5.23;100.00
9905;BME280;4991;43.566;27.820;2023-02-16T09:06:19;100184.34;;;5.40;100.00
9905;BME280;4991;43.566;27.820;2023-02-16T09:08:49;100187.50;;;5.48;100.00
9905;BME280;4991;43.566;27.820;2023-02-16T09:11:18;100179.75;;;5.52;100.00
9905;BME280;4991;43.566;27.820;2023-02-16T09:13:45;100178.28;;;5.72;100.00
9905;BME280;4991;43.566;27.820;2023-02-16T09:16:14;100178.03;;;5.74;100.00
9905;BME280;4991;43.566;27.820;2023-02-16T09:18:40;100180.66;;;5.80;100.00
9905;BME280;4991;43.566;27.820;2023-02-16T09:21:11;100173.56;;;5.91;100.00
9905;BME280;4991;43.566;27.820;2023-02-16T09:23:40;100168.16;;;5.91;100.00
9905;BME280;4991;43.566;27.820;2023-02-16T09:26:07;100173.47;;;6.14;100.00
9905;BME280;4991;43.566;27.820;2023-02-16T09:28:35;100163.75;;;6.57;100.00
9905;BME280;4991;43.566;27.820;2023-02-16T09:31:19;100165.84;;;8.03;100.00
9905;BME280;4991;43.566;27.820;2023-02-16T09:33:50;100166.66;;;9.57;86.32
9905;BME280;4991;43.566;27.820;2023-02-16T09:36:16;100161.91;;;10.86;60.23
9905;BME280;4991;43.566;27.820;2023-02-16T09:38:42;100161.50;;;11.78;49.54
9905;BME280;4991;43.566;27.820;2023-02-16T09:44:12;100147.13;;;12.98;49.46
9905;BME280;4991;43.566;27.820;2023-02-16T09:46:42;100154.88;;;13.72;48.10
9905;BME280;4991;43.566;27.820;2023-02-16T09:49:25;100157.66;;;14.14;35.25
9905;BME280;4991;43.566;27.820;2023-02-16T09:52:08;100151.97;;;14.66;27.17
9905;BME280;4991;43.566;27.820;2023-02-16T10:00:35;100141.31;;;15.15;38.71
9905;BME280;4991;43.566;27.820;2023-02-16T10:03:09;100134.41;;;15.18;35.93
9905;BME280;4991;43.566;27.820;2023-02-16T10:08:13;100139.44;;;15.11;30.37
9905;BME280;4991;43.566;27.820;2023-02-16T10:10:43;100129.84;;;15.27;29.88
9905;BME280;4991;43.566;27.820;2023-02-16T10:13:18;100124.81;;;15.47;29.72
9905;BME280;4991;43.566;27.820;2023-02-16T10:15:45;100120.06;;;15.67;30.44
9905;BME280;4991;43.566;27.820;2023-02-16T10:18:27;100126.34;;;16.57;32.50
9905;BME280;4991;43.566;27.820;2023-02-16T10:20:56;100123.41;;;15.91;35.08
9905;BME280;4991;43.566;27.820;2023-02-16T10:31:42;100105.41;;;16.92;38.81
9905;BME280;4991;43.566;27.820;2023-02-16T10:35:16;100100.22;;;17.12;38.91
9905;BME280;4991;43.566;27.820;2023-02-16T10:40:32;100105.25;;;17.19;39.64
9905;BME280;4991;43.566;27.820;2023-02-16T10:43:10;100095.66;;;17.08;38.88
9905;BME280;4991;43.566;27.820;2023-02-16T10:45:55;100091.44;;;17.10;39.53
9905;BME280;4991;43.566;27.820;2023-02-16T10:48:24;100086.28;;;17.39;38.52
9905;BME280;4991;43.566;27.820;2023-02-16T10:51:05;100083.63;;;17.65;36.83
9905;BME280;4991;43.566;27.820;2023-02-16T10:53:48;100087.84;;;17.71;36.58
9905;BME280;4991;43.566;27.820;2023-02-16T10:56:32;100078.56;;;17.28;36.74
9905;BME280;4991;43.566;27.820;2023-02-16T10:59:05;100079.53;;;18.10;35.95
9905;BME280;4991;43.566;27.820;2023-02-16T11:01:37;100072.84;;;17.85;34.75
9905;BME280;4991;43.566;27.820;2023-02-16T11:04:04;100075.44;;;17.82;33.44
9905;BME280;4991;43.566;27.820;2023-02-16T11:06:30;100070.25;;;17.80;33.67
9905;BME280;4991;43.566;27.820;2023-02-16T11:08:57;100067.59;;;17.67;33.31
9905;BME280;4991;43.566;27.820;2023-02-16T11:11:33;100059.41;;;18.01;33.54
9905;BME280;4991;43.566;27.820;2023-02-16T11:14:06;100067.59;;;17.67;33.46
9905;BME280;4991;43.566;27.820;2023-02-16T11:16:33;100052.31;;;18.68;32.70
9905;BME280;4991;43.566;27.820;2023-02-16T11:19:06;100043.22;;;18.34;32.74
9905;BME280;4991;43.566;27.820;2023-02-16T11:24:13;100041.69;;;19.04;31.73
9905;BME280;4991;43.566;27.820;2023-02-16T11:29:26;100037.25;;;19.12;32.19
9905;BME280;4991;43.566;27.820;2023-02-16T11:31:52;100035.16;;;19.55;31.05
9905;BME280;4991;43.566;27.820;2023-02-16T11:37:26;100024.00;;;19.72;29.97
9905;BME280;4991;43.566;27.820;2023-02-16T11:39:55;100026.63;;;19.98;29.74
9905;BME280;4991;43.566;27.820;2023-02-16T11:42:28;100021.28;;;19.93;29.91
9905;BME280;4991;43.566;27.820;2023-02-16T11:44:57;100021.53;;;19.79;28.76
9905;BME280;4991;43.566;27.820;2023-02-16T11:47:33;100015.66;;;19.52;28.86
9905;BME280;4991;43.566;27.820;2023-02-16T11:53:14;100023.84;;;18.93;30.75
9905;BME280;4991;43.566;27.820;2023-02-16T11:55:45;100014.69;;;19.56;30.31
9905;BME280;4991;43.566;27.820;2023-02-16T11:58:19;100011.53;;;19.37;29.72
9905;BME280;4991;43.566;27.820;2023-02-16T12:00:52;100011.47;;;19.46;29.65
9905;BME280;4991;43.566;27.820;2023-02-16T12:03:36;100004.22;;;19.62;28.71
9905;BME280;4991;43.566;27.820;2023-02-16T12:06:28;99999.31;;;20.70;27.86
9905;BME280;4991;43.566;27.820;2023-02-16T12:09:11;100006.13;;;21.05;27.01
9905;BME280;4991;43.566;27.820;2023-02-16T12:11:59;100001.72;;;21.04;27.10
9905;BME280;4991;43.566;27.820;2023-02-16T12:19:41;99991.28;;;19.83;27.09
9905;BME280;4991;43.566;27.820;2023-02-16T12:25:11;99979.97;;;20.49;27.21
9905;BME280;4991;43.566;27.820;2023-02-16T12:37:02;99982.81;;;21.06;26.60
9905;BME280;4991;43.566;27.820;2023-02-16T12:39:43;99975.00;;;20.88;27.34
9905;BME280;4991;43.566;27.820;2023-02-16T12:42:25;99976.34;;;21.14;26.60
9905;BME280;4991;43.566;27.820;2023-02-16T12:45:00;99969.56;;;21.12;26.29
9905;BME280;4991;43.566;27.820;2023-02-16T12:47:31;99979.50;;;21.25;26.80
9905;BME280;4991;43.566;27.820;2023-02-16T12:50:05;99975.44;;;21.83;25.68
9905;BME280;4991;43.566;27.820;2023-02-16T12:52:53;99966.41;;;22.25;25.62
9905;BME280;4991;43.566;27.820;2023-02-16T12:55:41;99965.97;;;21.59;26.54
9905;BME280;4991;43.566;27.820;2023-02-16T13:00:48;99967.59;;;21.60;27.26
9905;BME280;4991;43.566;27.820;2023-02-16T13:03:38;99968.50;;;21.16;28.31
9905;BME280;4991;43.566;27.820;2023-02-16T13:06:16;99953.75;;;21.24;28.01
9905;BME280;4991;43.566;27.820;2023-02-16T13:08:51;99958.22;;;20.60;27.67
9905;BME280;4991;43.566;27.820;2023-02-16T13:11:28;99949.88;;;20.48;27.39
9905;BME280;4991;43.566;27.820;2023-02-16T13:14:00;99955.06;;;20.49;27.17
9905;BME280;4991;43.566;27.820;2023-02-16T13:17:13;99948.31;;;20.59;27.64
9905;BME280;4991;43.566;27.820;2023-02-16T13:19:30;99952.63;;;19.95;28.86
9905;BME280;4991;43.566;27.820;2023-02-16T13:25:01;99940.69;;;19.82;29.17
9905;BME280;4991;43.566;27.820;2023-02-16T13:38:55;99944.13;;;20.53;28.03
9905;BME280;4991;43.566;27.820;2023-02-16T13:44:43;99950.31;;;20.83;27.61
9905;BME280;4991;43.566;27.820;2023-02-16T13:47:19;99938.38;;;21.15;27.69
9905;BME280;4991;43.566;27.820;2023-02-16T13:49:47;99942.50;;;21.69;27.24
9905;BME280;4991;43.566;27.820;2023-02-16T13:52:37;99934.28;;;21.85;27.29
9905;BME280;4991;43.566;27.820;2023-02-16T13:55:20;99933.84;;;21.83;26.90
9905;BME280;4991;43.566;27.820;2023-02-16T14:00:43;99940.47;;;21.42;27.30
9905;BME280;4991;43.566;27.820;2023-02-16T14:05:54;99931.38;;;20.28;29.20
9905;BME280;4991;43.566;27.820;2023-02-16T14:08:27;99929.91;;;19.69;29.79
9905;BME280;4991;43.566;27.820;2023-02-16T14:13:43;99917.28;;;19.59;30.03
9905;BME280;4991;43.566;27.820;2023-02-16T14:18:50;99907.75;;;18.90;30.88
9905;BME280;4991;43.566;27.820;2023-02-16T14:21:38;99906.72;;;19.03;31.19
9905;BME280;4991;43.566;27.820;2023-02-16T14:24:09;99909.06;;;19.21;30.49
9905;BME280;4991;43.566;27.820;2023-02-16T14:26:59;99911.28;;;18.99;30.74
9905;BME280;4991;43.566;27.820;2023-02-16T14:29:35;99905.75;;;19.37;30.52
9905;BME280;4991;43.566;27.820;2023-02-16T14:32:26;99901.84;;;19.38;30.81
9905;BME280;4991;43.566;27.820;2023-02-16T14:35:12;99900.31;;;18.10;32.42
9905;BME280;4991;43.566;27.820;2023-02-16T14:38:44;99905.69;;;17.89;33.21
9905;BME280;4991;43.566;27.820;2023-02-16T14:40:56;99902.94;;;17.55;33.76
9905;BME280;4991;43.566;27.820;2023-02-16T15:03:02;99894.88;;;14.77;40.07
9905;BME280;4991;43.566;27.820;2023-02-16T15:05:30;99886.72;;;14.58;40.74
9905;BME280;4991;43.566;27.820;2023-02-16T15:08:15;99890.91;;;14.56;42.05
9905;BME280;4991;43.566;27.820;2023-02-16T15:10:42;99893.34;;;13.93;47.04
9905;BME280;4991;43.566;27.820;2023-02-16T15:13:31;99897.38;;;13.63;57.41
9905;BME280;4991;43.566;27.820;2023-02-16T15:16:02;99894.50;;;13.36;65.44
9905;BME280;4991;43.566;27.820;2023-02-16T15:18:43;99894.97;;;12.77;75.33
9905;BME280;4991;43.566;27.820;2023-02-16T15:21:21;99901.97;;;12.08;83.21
9905;BME280;4991;43.566;27.820;2023-02-16T15:23:54;99903.97;;;11.63;89.30
9905;BME280;4991;43.566;27.820;2023-02-16T15:26:22;99901.97;;;11.30;93.61
9905;BME280;4991;43.566;27.820;2023-02-16T15:29:10;99901.91;;;10.87;98.79
9905;BME280;4991;43.566;27.820;2023-02-16T15:31:38;99902.31;;;10.40;100.00
9905;BME280;4991;43.566;27.820;2023-02-16T15:34:13;99895.00;;;10.10;100.00
9905;BME280;4991;43.566;27.820;2023-02-16T15:36:41;99891.19;;;9.81;100.00